Veterans Admin Fac, Alabama
Current Conditions -  °F | °C
As of 11:55 PM on Monday 26 Jan 2015 (Local Time) from KAUO Reporting Station
Broken Clouds Broken Clouds  
Wind Chill: 31°   Ceiling: 6500
Heat Index: 36°   Visibility: 10mi
Dew Point: 27°   Wind: 6mph
Humidity: 70%   Direction: 280°W
Pressure: 29.99"   Gusts: NA
Location:  32.4242°N, 85.6518°W
Report Text: KAUO 270555Z AUTO 28005KT 10SM BKN065 02/M03 A2999 RMK AO1 10030 20010 52003
Loading
Personal Weather Stations






























Interactive Weather Map New forecast layout! Learn more

10-Day Weather Forecast

Advertisements
Track Severe Weather on mobile